Oceanside, Washington
Current Conditions -  °F | °C
As of 5:03 AM on Tuesday 21 Oct 2014 (Local Time) from KAST Reporting Station
Broken Clouds Broken Clouds  
Wind Chill: 56°   Ceiling: 2500
Heat Index: 56°   Visibility: 10mi
Dew Point: 52°   Wind: 9mph
Humidity: 87%   Direction: 190°S
Pressure: 29.85"   Gusts: NA
Location:  46.3832°N, 124.042°W
Report Text: KAST 211203Z AUTO 19008KT 10SM BKN025 BKN030 13/11 A2985 RMK AO2 T01330111
Loading
Personal Weather Stations






























Interactive Weather Map New forecast layout! Learn more

10-Day Weather Forecast

Advertisements
Track Severe Weather on mobile